createdAt,value
2023-04-15T00:01:29.028Z,76.14
2023-04-15T00:03:31.048Z,75.94
2023-04-15T00:05:33.300Z,76.76
2023-04-15T00:07:36.221Z,76.78
2023-04-15T00:09:38.101Z,75.93
2023-04-15T00:11:39.831Z,75.55
2023-04-15T00:13:42.015Z,75.32
2023-04-15T00:15:43.974Z,75.77
2023-04-15T00:17:46.081Z,75.45
2023-04-15T00:19:47.869Z,75.81
2023-04-15T00:21:49.653Z,75.44
2023-04-15T00:23:53.816Z,76.02
2023-04-15T00:25:55.763Z,75.51
2023-04-15T00:28:02.832Z,76.21
2023-04-15T00:30:05.425Z,76.12
2023-04-15T00:32:07.526Z,76.28
2023-04-15T00:34:09.542Z,76.11
2023-04-15T00:36:11.290Z,75.95
2023-04-15T00:38:13.219Z,75.83
2023-04-15T00:40:19.753Z,75.96
2023-04-15T00:42:21.962Z,75.55
2023-04-15T00:44:23.992Z,76.08
2023-04-15T00:46:28.672Z,76.52
2023-04-15T00:48:31.031Z,76.20
2023-04-15T00:50:33.577Z,76.18
2023-04-15T00:52:35.386Z,75.66
2023-04-15T00:54:37.681Z,76.29
2023-04-15T00:56:39.935Z,75.74
2023-04-15T00:58:42.122Z,76.14
2023-04-15T01:00:44.214Z,75.65
2023-04-15T01:02:46.212Z,76.16
2023-04-15T01:04:48.613Z,75.93
2023-04-15T01:06:50.373Z,76.15
2023-04-15T01:08:52.125Z,75.42
2023-04-15T01:10:58.463Z,75.33
2023-04-15T01:13:03.237Z,75.55
2023-04-15T01:15:05.909Z,76.23
2023-04-15T01:17:07.717Z,76.03
2023-04-15T01:19:11.033Z,76.02
2023-04-15T01:21:12.777Z,75.73
2023-04-15T01:23:14.702Z,75.50
2023-04-15T01:25:19.741Z,75.53
2023-04-15T01:27:22.363Z,75.56
2023-04-15T01:29:24.194Z,75.86
2023-04-15T01:31:26.040Z,75.75
2023-04-15T01:33:28.956Z,76.16
2023-04-15T01:35:31.066Z,75.10
2023-04-15T01:37:33.275Z,75.54
2023-04-15T01:39:35.552Z,75.01
2023-04-15T01:41:37.292Z,75.16
2023-04-15T01:43:39.024Z,74.87
2023-04-15T01:45:40.920Z,75.53
2023-04-15T01:47:42.716Z,74.88
2023-04-15T01:49:44.513Z,74.72
2023-04-15T01:51:46.309Z,75.23
2023-04-15T01:53:48.038Z,74.86
2023-04-15T01:55:49.829Z,74.73
2023-04-15T01:57:52.526Z,75.16
2023-04-15T01:59:54.238Z,74.64
2023-04-15T02:01:58.715Z,75.13
2023-04-15T02:04:01.181Z,74.21
2023-04-15T02:06:04.666Z,74.73
2023-04-15T02:08:06.428Z,74.47
2023-04-15T02:10:09.525Z,74.73
2023-04-15T02:12:11.467Z,74.84
2023-04-15T02:14:13.436Z,74.71
2023-04-15T02:16:19.797Z,74.42
2023-04-15T02:18:21.766Z,74.63
2023-04-15T02:20:23.703Z,74.34
2023-04-15T02:22:30.435Z,73.99
2023-04-15T02:24:32.184Z,73.94
2023-04-15T02:26:33.918Z,73.63
2023-04-15T02:28:35.955Z,73.42
2023-04-15T02:30:37.754Z,73.46
2023-04-15T02:32:40.487Z,73.25
2023-04-15T02:34:42.852Z,73.33
2023-04-15T02:36:44.706Z,72.97
2023-04-15T02:38:46.439Z,73.26
2023-04-15T02:40:49.902Z,74.07
2023-04-15T02:42:51.719Z,74.03
2023-04-15T02:44:54.957Z,73.72
2023-04-15T02:46:56.869Z,73.65
2023-04-15T02:49:00.357Z,73.47
2023-04-15T02:51:22.732Z,73.45
2023-04-15T02:53:24.564Z,73.43
2023-04-15T02:55:26.336Z,74.07
2023-04-15T02:57:29.713Z,73.24
2023-04-15T02:59:31.782Z,73.26
2023-04-15T03:01:33.554Z,74.11
2023-04-15T03:03:35.865Z,73.75
2023-04-15T03:05:39.341Z,73.50
2023-04-15T03:07:41.241Z,73.92
2023-04-15T03:09:43.085Z,74.21
2023-04-15T03:11:44.875Z,73.64
2023-04-15T03:13:46.566Z,74.28
2023-04-15T03:15:48.691Z,73.77
2023-04-15T03:17:50.777Z,73.56
2023-04-15T03:19:52.485Z,74.79
2023-04-15T03:21:54.157Z,74.61
2023-04-15T03:23:56.718Z,74.29
2023-04-15T03:25:59.989Z,74.69
2023-04-15T03:28:01.788Z,75.01
2023-04-15T03:30:03.866Z,74.71
2023-04-15T03:32:08.089Z,74.30
2023-04-15T03:34:09.827Z,74.62
2023-04-15T03:36:11.622Z,74.61
2023-04-15T03:38:13.365Z,74.73
2023-04-15T03:40:15.131Z,74.51
2023-04-15T03:42:16.809Z,74.92
2023-04-15T03:44:18.553Z,74.50
2023-04-15T03:46:20.487Z,74.79
2023-04-15T03:48:22.258Z,74.47
2023-04-15T03:50:23.978Z,74.53
2023-04-15T03:52:25.720Z,74.79
2023-04-15T03:54:27.392Z,74.38
2023-04-15T03:56:29.171Z,74.19
2023-04-15T03:58:30.903Z,74.54
2023-04-15T04:00:32.564Z,74.61
2023-04-15T04:02:34.399Z,74.49
2023-04-15T04:04:36.508Z,74.46
2023-04-15T04:06:38.228Z,73.87
2023-04-15T04:08:40.057Z,73.97
2023-04-15T04:10:42.085Z,74.57
2023-04-15T04:12:43.765Z,74.15
2023-04-15T04:14:45.779Z,73.93
2023-04-15T04:16:47.492Z,73.90
2023-04-15T04:18:49.259Z,74.19
2023-04-15T04:20:51.379Z,74.19
2023-04-15T04:22:53.074Z,74.68
2023-04-15T04:24:54.865Z,73.95
2023-04-15T04:26:57.343Z,74.31
2023-04-15T04:28:59.241Z,74.02
2023-04-15T04:31:01.365Z,74.81
2023-04-15T04:33:03.242Z,73.70
2023-04-15T04:35:05.648Z,74.00
2023-04-15T04:37:07.432Z,73.39
2023-04-15T04:39:09.234Z,73.43
2023-04-15T04:41:11.024Z,73.97
2023-04-15T04:43:13.326Z,73.61
2023-04-15T04:45:15.250Z,73.21
2023-04-15T04:47:16.998Z,73.45
2023-04-15T04:49:21.219Z,73.89
2023-04-15T04:51:23.087Z,74.27
2023-04-15T04:53:24.829Z,73.71
2023-04-15T04:55:27.401Z,73.86
2023-04-15T04:57:29.126Z,74.33
2023-04-15T04:59:30.895Z,74.07
2023-04-15T05:01:32.734Z,74.46
2023-04-15T05:03:34.640Z,73.88
2023-04-15T05:05:39.514Z,73.78
2023-04-15T05:07:41.335Z,74.26
2023-04-15T05:09:43.095Z,74.05
2023-04-15T05:11:44.822Z,74.70
2023-04-15T05:13:46.560Z,75.10
2023-04-15T05:15:48.384Z,74.68
2023-04-15T05:17:50.224Z,74.08
2023-04-15T05:19:52.024Z,74.51
2023-04-15T05:21:53.799Z,74.28
2023-04-15T05:23:55.637Z,73.93
2023-04-15T05:25:57.374Z,74.30
2023-04-15T05:27:59.347Z,74.66
2023-04-15T05:30:01.292Z,74.32
2023-04-15T05:32:06.242Z,74.73
2023-04-15T05:34:08.310Z,74.31
2023-04-15T05:36:10.334Z,74.45
2023-04-15T05:38:12.155Z,74.51
2023-04-15T05:40:14.505Z,74.30
2023-04-15T05:42:16.229Z,74.71
2023-04-15T05:44:17.961Z,75.05
2023-04-15T05:46:19.862Z,74.62
2023-04-15T05:48:21.729Z,74.86
2023-04-15T05:50:23.495Z,74.81
2023-04-15T05:52:25.813Z,74.50
2023-04-15T05:54:28.038Z,73.66
2023-04-15T05:56:29.778Z,74.32
2023-04-15T05:58:31.523Z,74.21
2023-04-15T06:00:33.338Z,74.27
2023-04-15T06:02:35.300Z,74.12
2023-04-15T06:04:37.284Z,74.25
2023-04-15T06:06:39.060Z,74.57
2023-04-15T06:08:40.800Z,73.61
2023-04-15T06:10:42.880Z,73.43
2023-04-15T06:12:47.086Z,74.03
2023-04-15T06:14:48.841Z,73.96
2023-04-15T06:16:50.520Z,73.79
2023-04-15T06:18:52.264Z,74.22
2023-04-15T06:20:54.010Z,74.24
2023-04-15T06:22:55.751Z,74.24
2023-04-15T06:24:57.653Z,73.97
2023-04-15T06:26:59.444Z,74.21
2023-04-15T06:29:01.721Z,74.09
2023-04-15T06:31:04.005Z,74.29
2023-04-15T06:33:06.639Z,74.76
2023-04-15T06:35:11.724Z,74.40
2023-04-15T06:37:16.341Z,73.71
2023-04-15T06:39:18.077Z,73.46
2023-04-15T06:41:22.266Z,72.79
2023-04-15T06:43:24.353Z,72.96
2023-04-15T06:45:26.065Z,72.64
2023-04-15T06:47:27.960Z,73.11
2023-04-15T06:49:29.865Z,73.29
2023-04-15T06:51:32.895Z,73.23
2023-04-15T06:53:35.750Z,73.19
2023-04-15T06:55:37.585Z,73.10
2023-04-15T06:57:39.464Z,72.77
2023-04-15T06:59:41.302Z,72.67
2023-04-15T07:01:43.264Z,72.56
2023-04-15T07:03:45.087Z,72.28
2023-04-15T07:05:46.867Z,72.81
2023-04-15T07:07:48.616Z,72.66
2023-04-15T07:09:50.647Z,72.07
2023-04-15T07:11:52.700Z,73.01
2023-04-15T07:13:54.539Z,72.59
2023-04-15T07:15:56.962Z,72.74
2023-04-15T07:17:58.806Z,72.53
2023-04-15T07:20:00.597Z,72.68
2023-04-15T07:22:02.377Z,72.17
2023-04-15T07:24:04.475Z,72.04
2023-04-15T07:26:06.402Z,71.33
2023-04-15T07:28:08.207Z,71.40
2023-04-15T07:30:10.768Z,71.33
2023-04-15T07:32:12.499Z,71.28
2023-04-15T07:34:14.298Z,71.39
2023-04-15T07:36:18.888Z,71.33
2023-04-15T07:38:20.706Z,71.55
2023-04-15T07:40:22.514Z,71.52
2023-04-15T07:42:24.458Z,71.71
2023-04-15T07:44:27.335Z,70.79
2023-04-15T07:46:29.425Z,71.04
2023-04-15T07:48:31.583Z,71.43
2023-04-15T07:50:33.637Z,71.60
2023-04-15T07:52:39.317Z,71.51
2023-04-15T07:54:41.182Z,72.04
2023-04-15T07:56:43.260Z,72.00
2023-04-15T07:58:44.987Z,71.89
2023-04-15T08:00:46.968Z,72.51
2023-04-15T08:02:50.150Z,71.58
2023-04-15T08:04:53.272Z,71.52
2023-04-15T08:06:55.315Z,71.27
2023-04-15T08:08:57.175Z,71.31
2023-04-15T08:10:59.149Z,71.38
2023-04-15T08:13:01.202Z,71.22
2023-04-15T08:15:03.162Z,72.02
2023-04-15T08:17:05.717Z,71.22
2023-04-15T08:19:07.603Z,71.55
2023-04-15T08:21:10.330Z,71.50
2023-04-15T08:23:12.119Z,70.72
2023-04-15T08:25:14.008Z,70.88
2023-04-15T08:27:15.877Z,71.42
2023-04-15T08:29:17.740Z,70.44
2023-04-15T08:31:19.892Z,71.19
2023-04-15T08:33:22.073Z,69.62
2023-04-15T08:35:23.928Z,69.54
2023-04-15T08:37:26.894Z,69.63
2023-04-15T08:39:28.815Z,69.44
2023-04-15T08:41:40.006Z,69.58
2023-04-15T08:43:49.660Z,69.96
2023-04-15T08:45:53.209Z,69.43
2023-04-15T08:47:56.995Z,70.25
2023-04-15T08:49:59.615Z,69.10
2023-04-15T08:52:02.982Z,68.80
2023-04-15T08:54:05.372Z,68.81
2023-04-15T08:56:10.250Z,68.56
2023-04-15T08:58:13.572Z,69.07
2023-04-15T09:00:16.351Z,69.14
2023-04-15T09:02:18.536Z,69.35
2023-04-15T09:04:20.810Z,68.41
2023-04-15T09:06:23.283Z,68.93
2023-04-15T09:08:25.354Z,69.04
2023-04-15T09:10:27.827Z,68.74
2023-04-15T09:12:29.706Z,68.81
2023-04-15T09:14:32.711Z,67.55
2023-04-15T09:16:59.014Z,67.86
2023-04-15T09:19:01.001Z,68.22
2023-04-15T09:21:08.852Z,67.62
2023-04-15T09:23:15.008Z,67.07
2023-04-15T09:25:25.392Z,67.61
2023-04-15T09:27:27.178Z,67.42
2023-04-15T09:29:29.209Z,67.55
2023-04-15T09:31:31.579Z,66.19
2023-04-15T09:33:33.403Z,66.56
2023-04-15T09:35:36.516Z,66.30
2023-04-15T09:37:38.290Z,66.76
2023-04-15T09:39:50.714Z,66.62
2023-04-15T09:42:06.994Z,66.59
2023-04-15T09:44:26.133Z,65.97
2023-04-15T09:46:45.485Z,65.40
2023-04-15T09:48:47.529Z,65.47
2023-04-15T09:50:50.418Z,65.31
2023-04-15T09:52:52.216Z,64.95
2023-04-15T09:54:56.690Z,65.27
2023-04-15T09:57:06.352Z,65.39
2023-04-15T09:59:09.690Z,64.55
2023-04-15T10:01:11.909Z,64.98
2023-04-15T10:03:19.209Z,64.93
2023-04-15T10:05:22.264Z,65.16
2023-04-15T10:07:24.241Z,65.28
2023-04-15T10:09:26.951Z,65.87
2023-04-15T10:11:31.506Z,65.93
2023-04-15T10:13:35.331Z,65.43
2023-04-15T10:15:38.813Z,65.00
2023-04-15T10:17:44.942Z,64.49
2023-04-15T10:19:48.495Z,64.49
2023-04-15T10:21:51.374Z,64.42
2023-04-15T10:23:53.690Z,64.25
2023-04-15T10:25:55.706Z,63.97
2023-04-15T10:27:58.463Z,63.98
2023-04-15T10:30:03.936Z,64.08
2023-04-15T10:32:06.032Z,63.77
2023-04-15T10:34:08.975Z,63.60
2023-04-15T10:36:11.800Z,63.15
2023-04-15T10:38:33.328Z,63.07
2023-04-15T10:40:35.786Z,62.42
2023-04-15T10:42:40.871Z,62.24
2023-04-15T10:44:45.076Z,62.18
2023-04-15T10:46:47.534Z,62.08
2023-04-15T10:48:51.589Z,61.95
2023-04-15T10:50:57.652Z,62.36
2023-04-15T10:53:02.579Z,61.87
2023-04-15T10:55:15.906Z,61.60
2023-04-15T10:57:23.786Z,62.15
2023-04-15T10:59:25.655Z,61.46
2023-04-15T11:01:51.677Z,60.96
2023-04-15T11:03:55.957Z,61.19
2023-04-15T11:05:58.250Z,61.76
2023-04-15T11:07:59.982Z,61.25
2023-04-15T11:10:02.188Z,61.55
2023-04-15T11:12:09.930Z,61.01
2023-04-15T11:14:22.207Z,60.85
2023-04-15T11:16:24.282Z,60.63
2023-04-15T11:18:30.190Z,60.84
2023-04-15T11:20:32.600Z,60.38
2023-04-15T11:22:34.471Z,60.34
2023-04-15T11:24:37.248Z,59.47
2023-04-15T11:26:40.182Z,59.59
2023-04-15T11:28:45.970Z,58.92
2023-04-15T11:30:48.565Z,58.61
2023-04-15T11:32:51.762Z,58.88
2023-04-15T11:34:53.550Z,58.28
2023-04-15T11:36:57.323Z,58.28
2023-04-15T11:38:59.969Z,58.10
2023-04-15T11:41:01.919Z,57.66
2023-04-15T11:43:07.071Z,57.68
2023-04-15T11:45:12.288Z,56.78
2023-04-15T11:47:24.106Z,56.15
2023-04-15T11:49:29.516Z,56.12
2023-04-15T11:51:34.496Z,55.35
2023-04-15T11:53:42.838Z,54.80
2023-04-15T11:55:48.040Z,54.45
2023-04-15T11:57:51.754Z,54.87
2023-04-15T11:59:55.514Z,54.61
2023-04-15T12:01:57.468Z,54.49
2023-04-15T12:04:01.786Z,54.64
2023-04-15T12:06:05.354Z,55.02
2023-04-15T12:08:07.497Z,54.16
2023-04-15T12:10:12.411Z,53.28
2023-04-15T12:12:16.766Z,52.23
2023-04-15T12:14:22.541Z,51.48
2023-04-15T12:16:25.371Z,51.52
2023-04-15T12:18:27.126Z,51.39
2023-04-15T12:20:31.506Z,51.13
2023-04-15T12:22:38.354Z,51.08
2023-04-15T12:24:40.653Z,50.00
2023-04-15T12:26:46.550Z,50.54
2023-04-15T12:28:48.346Z,51.00
2023-04-15T12:30:51.758Z,51.71
2023-04-15T12:32:53.753Z,50.70
2023-04-15T12:34:55.706Z,50.38
2023-04-15T12:36:59.393Z,50.26
2023-04-15T12:39:01.270Z,50.70
2023-04-15T12:41:03.134Z,49.58
2023-04-15T12:43:05.189Z,48.04
2023-04-15T12:45:07.799Z,48.21
2023-04-15T12:47:11.045Z,48.33
2023-04-15T12:49:14.957Z,48.29
2023-04-15T12:51:16.891Z,47.95
2023-04-15T12:53:21.138Z,47.30
2023-04-15T12:55:23.009Z,47.75
2023-04-15T12:57:24.830Z,48.19
2023-04-15T12:59:26.712Z,47.54
2023-04-15T13:01:28.871Z,47.23
2023-04-15T13:03:30.959Z,47.64
2023-04-15T13:05:33.100Z,46.70
2023-04-15T13:07:34.943Z,45.53
2023-04-15T13:09:36.900Z,45.22
2023-04-15T13:11:38.993Z,45.49
2023-04-15T13:13:41.253Z,45.13
2023-04-15T13:15:45.922Z,45.38
2023-04-15T13:17:50.269Z,45.44
2023-04-15T13:19:52.269Z,45.73
2023-04-15T13:21:54.207Z,45.26
2023-04-15T13:23:56.228Z,44.22
2023-04-15T13:25:58.211Z,44.24
2023-04-15T13:28:01.397Z,43.77
2023-04-15T13:30:03.972Z,43.92
2023-04-15T13:32:06.703Z,43.98
2023-04-15T13:34:08.532Z,43.96
2023-04-15T13:36:10.592Z,43.42
2023-04-15T13:38:12.396Z,43.71
2023-04-15T13:40:14.269Z,43.34
2023-04-15T13:42:16.159Z,43.67
2023-04-15T13:44:18.744Z,43.79
2023-04-15T13:46:21.908Z,43.54
2023-04-15T13:48:24.046Z,42.79
2023-04-15T13:50:25.871Z,42.33
2023-04-15T13:52:27.719Z,42.52
2023-04-15T13:54:37.501Z,41.73
2023-04-15T13:56:40.075Z,41.42
2023-04-15T13:58:42.004Z,41.40
2023-04-15T14:00:44.198Z,41.55
2023-04-15T14:02:46.634Z,41.29
2023-04-15T14:04:48.489Z,40.63
2023-04-15T14:06:51.013Z,41.02
2023-04-15T14:08:53.296Z,40.62
2023-04-15T14:10:55.118Z,40.26
2023-04-15T14:12:56.989Z,39.79
2023-04-15T14:14:59.089Z,39.57
2023-04-15T14:17:01.169Z,39.64
2023-04-15T14:19:03.841Z,39.78
2023-04-15T14:21:07.356Z,39.79
2023-04-15T14:23:09.162Z,40.25
2023-04-15T14:25:17.290Z,40.42
2023-04-15T14:27:25.230Z,41.35
2023-04-15T14:29:27.171Z,41.49
2023-04-15T14:31:29.035Z,42.03
2023-04-15T14:33:30.971Z,42.24
2023-04-15T14:35:33.027Z,42.44
2023-04-15T14:37:34.903Z,43.50
2023-04-15T14:39:36.684Z,42.16
2023-04-15T14:41:38.505Z,40.96
2023-04-15T14:43:40.462Z,40.27
2023-04-15T14:45:44.579Z,39.61
2023-04-15T14:47:47.923Z,40.22
2023-04-15T14:49:49.832Z,39.46
2023-04-15T14:51:51.704Z,39.42
2023-04-15T14:53:53.578Z,39.37
2023-04-15T14:55:55.557Z,39.36
2023-04-15T14:57:57.584Z,39.87
2023-04-15T14:59:59.399Z,39.96
2023-04-15T15:02:01.545Z,40.46
2023-04-15T15:04:04.241Z,40.72
2023-04-15T15:06:06.368Z,40.45
2023-04-15T15:08:09.488Z,40.65
2023-04-15T15:10:11.340Z,41.03
2023-04-15T15:12:13.184Z,41.51
2023-04-15T15:14:14.981Z,41.09
2023-04-15T15:16:16.932Z,41.46
2023-04-15T15:18:19.641Z,41.80
2023-04-15T15:20:21.913Z,41.90
2023-04-15T15:22:23.798Z,41.38
2023-04-15T15:24:25.776Z,41.61
2023-04-15T15:26:28.354Z,40.14
2023-04-15T15:28:30.148Z,40.11
2023-04-15T15:30:32.085Z,39.49
2023-04-15T15:32:34.291Z,39.90
2023-04-15T15:34:36.155Z,39.01
2023-04-15T15:36:38.000Z,39.39
2023-04-15T15:38:41.797Z,39.84
2023-04-15T15:40:43.770Z,39.60
2023-04-15T15:42:47.353Z,38.47
2023-04-15T15:44:50.209Z,38.54
2023-04-15T15:46:52.042Z,38.19
2023-04-15T15:48:54.396Z,37.96
2023-04-15T15:50:56.371Z,37.36
2023-04-15T15:52:58.983Z,37.21
2023-04-15T15:55:02.032Z,38.50
2023-04-15T15:57:04.197Z,37.83
2023-04-15T15:59:06.340Z,37.10
2023-04-15T16:01:08.385Z,38.01
2023-04-15T16:03:10.431Z,37.17
2023-04-15T16:05:12.515Z,38.49
2023-04-15T16:07:16.603Z,36.81
2023-04-15T16:09:18.719Z,37.76
2023-04-15T16:11:23.695Z,36.27
2023-04-15T16:13:25.810Z,35.71
2023-04-15T16:15:27.915Z,36.44
2023-04-15T16:17:29.845Z,35.59
2023-04-15T16:19:31.884Z,35.72
2023-04-15T16:21:48.588Z,36.16
2023-04-15T16:23:51.135Z,37.21
2023-04-15T16:25:53.109Z,36.38
2023-04-15T16:28:05.578Z,35.74
2023-04-15T16:30:14.591Z,35.48
2023-04-15T16:32:16.888Z,36.67
2023-04-15T16:34:21.125Z,36.38
2023-04-15T16:36:30.014Z,36.93
2023-04-15T16:38:32.192Z,37.47
2023-04-15T16:40:34.480Z,37.48
2023-04-15T16:42:37.027Z,37.92
2023-04-15T16:44:39.314Z,38.23
2023-04-15T16:46:41.775Z,38.02
2023-04-15T16:48:43.836Z,38.69
2023-04-15T16:50:46.255Z,38.74
2023-04-15T16:52:48.206Z,39.34
2023-04-15T16:54:50.125Z,39.91
2023-04-15T16:56:52.077Z,40.70
2023-04-15T16:58:53.915Z,41.88
2023-04-15T17:00:56.089Z,42.04
2023-04-15T17:02:58.511Z,42.52
2023-04-15T17:05:00.550Z,42.67
2023-04-15T17:07:02.598Z,42.83
2023-04-15T17:09:05.112Z,43.45
2023-04-15T17:11:07.267Z,43.15
2023-04-15T17:13:09.239Z,43.58
2023-04-15T17:15:11.257Z,43.95
2023-04-15T17:17:13.315Z,43.72
2023-04-15T17:19:15.609Z,44.04
2023-04-15T17:21:17.951Z,43.45
2023-04-15T17:23:19.795Z,43.91
2023-04-15T17:25:22.129Z,43.91
2023-04-15T17:27:24.953Z,44.26
2023-04-15T17:29:27.205Z,44.46
2023-04-15T17:31:30.553Z,44.33
2023-04-15T17:34:00.500Z,44.26
2023-04-15T17:35:58.347Z,44.54
2023-04-15T17:38:00.209Z,45.25
2023-04-15T17:40:02.309Z,44.93
2023-04-15T17:42:04.527Z,46.00
2023-04-15T17:44:06.507Z,45.22
2023-04-15T17:46:08.662Z,45.08
2023-04-15T17:48:10.556Z,44.79
2023-04-15T17:50:12.369Z,45.34
2023-04-15T17:52:14.636Z,45.81
2023-04-15T17:54:16.449Z,46.31
2023-04-15T17:56:18.490Z,46.94
2023-04-15T17:58:20.591Z,47.20
2023-04-15T18:00:22.899Z,47.06
2023-04-15T18:02:24.933Z,47.33
2023-04-15T18:04:27.170Z,47.71
2023-04-15T18:06:29.316Z,48.41
2023-04-15T18:08:31.686Z,48.89
2023-04-15T18:10:34.506Z,48.89
2023-04-15T18:12:36.409Z,49.52
2023-04-15T18:14:38.272Z,49.71
2023-04-15T18:16:40.813Z,50.20
2023-04-15T18:18:42.961Z,49.99
2023-04-15T18:20:50.238Z,50.54
2023-04-15T18:22:52.831Z,50.70
2023-04-15T18:24:54.935Z,50.66
2023-04-15T18:26:57.279Z,50.47
2023-04-15T18:28:59.209Z,50.80
2023-04-15T18:31:01.746Z,50.79
2023-04-15T18:33:03.812Z,50.88
2023-04-15T18:35:06.856Z,50.58
2023-04-15T18:37:08.787Z,50.42
2023-04-15T18:39:10.821Z,50.81
2023-04-15T18:41:12.755Z,50.80
2023-04-15T18:43:14.727Z,51.15
2023-04-15T18:45:16.748Z,50.77
2023-04-15T18:47:18.883Z,51.17
2023-04-15T18:49:21.162Z,51.40
2023-04-15T18:51:25.973Z,51.91
2023-04-15T18:53:28.155Z,52.04
2023-04-15T18:55:30.156Z,51.81
2023-04-15T18:57:35.746Z,52.12
2023-04-15T18:59:38.796Z,52.59
2023-04-15T19:01:40.939Z,52.38
2023-04-15T19:03:42.887Z,52.20
2023-04-15T19:05:44.968Z,52.24
2023-04-15T19:07:46.882Z,52.57
2023-04-15T19:09:48.726Z,52.70
2023-04-15T19:11:50.694Z,52.88
2023-04-15T19:13:53.295Z,52.94
2023-04-15T19:15:55.334Z,52.63
2023-04-15T19:17:57.309Z,53.11
2023-04-15T19:19:59.092Z,53.32
2023-04-15T19:22:01.766Z,53.34
2023-04-15T19:24:03.734Z,53.06
2023-04-15T19:26:08.283Z,53.26
2023-04-15T19:28:10.323Z,53.37
2023-04-15T19:30:14.484Z,53.14
2023-04-15T19:32:16.446Z,53.19
2023-04-15T19:34:18.354Z,53.64
2023-04-15T19:36:20.120Z,53.83
2023-04-15T19:38:21.988Z,53.77
2023-04-15T19:40:23.833Z,53.67
2023-04-15T19:42:25.667Z,53.82
2023-04-15T19:44:27.500Z,53.85
2023-04-15T19:46:29.652Z,54.04
2023-04-15T19:48:31.450Z,53.92
2023-04-15T19:50:33.397Z,54.03
2023-04-15T19:52:35.271Z,53.92
2023-04-15T19:54:37.201Z,54.27
2023-04-15T19:56:39.096Z,54.73
2023-04-15T19:58:40.970Z,54.52
2023-04-15T20:00:43.073Z,54.54
2023-04-15T20:02:45.069Z,54.52
2023-04-15T20:04:47.238Z,54.81
2023-04-15T20:06:49.804Z,54.55
2023-04-15T20:08:52.120Z,54.43
2023-04-15T20:10:54.151Z,54.44
2023-04-15T20:12:55.969Z,54.75
2023-04-15T20:14:57.750Z,55.15
2023-04-15T20:16:59.624Z,55.28
2023-04-15T20:19:07.489Z,55.47
2023-04-15T20:21:09.352Z,55.69
2023-04-15T20:23:11.149Z,55.90
2023-04-15T20:25:13.024Z,55.88
2023-04-15T20:27:14.931Z,56.29
2023-04-15T20:29:16.929Z,56.58
2023-04-15T20:31:18.810Z,56.53
2023-04-15T20:33:22.290Z,56.67
2023-04-15T20:35:28.232Z,56.88
2023-04-15T20:37:31.142Z,56.95
2023-04-15T20:39:34.405Z,57.11
2023-04-15T20:41:36.192Z,57.07
2023-04-15T20:43:37.968Z,57.42
2023-04-15T20:45:39.808Z,57.25
2023-04-15T20:47:41.816Z,57.49
2023-04-15T20:49:43.739Z,57.59
2023-04-15T20:51:45.619Z,57.51
2023-04-15T20:53:47.449Z,57.83
2023-04-15T20:55:49.253Z,57.60
2023-04-15T20:57:51.367Z,57.79
2023-04-15T20:59:53.196Z,57.80
2023-04-15T21:01:57.036Z,58.23
2023-04-15T21:03:59.495Z,58.26
2023-04-15T21:06:01.399Z,58.67
2023-04-15T21:08:03.241Z,58.72
2023-04-15T21:10:05.559Z,58.59
2023-04-15T21:12:07.678Z,58.68
2023-04-15T21:14:09.645Z,59.16
2023-04-15T21:16:11.412Z,59.26
2023-04-15T21:18:13.376Z,59.42
2023-04-15T21:20:15.284Z,59.21
2023-04-15T21:22:17.017Z,59.11
2023-04-15T21:24:18.775Z,58.87
2023-04-15T21:26:20.593Z,58.49
2023-04-15T21:28:22.695Z,58.23
2023-04-15T21:30:24.610Z,58.42
2023-04-15T21:32:26.500Z,58.49
2023-04-15T21:34:28.355Z,58.40
2023-04-15T21:36:30.394Z,58.94
2023-04-15T21:38:32.873Z,58.88
2023-04-15T21:40:34.687Z,58.89
2023-04-15T21:42:36.548Z,58.46
2023-04-15T21:44:38.340Z,58.80
2023-04-15T21:46:40.225Z,58.78
2023-04-15T21:48:42.095Z,58.76
2023-04-15T21:50:44.480Z,58.35
2023-04-15T21:52:46.288Z,58.82
2023-04-15T21:54:48.075Z,58.72
2023-04-15T21:56:50.979Z,58.79
2023-04-15T21:58:56.952Z,58.72
2023-04-15T22:01:00.560Z,59.05
2023-04-15T22:03:02.648Z,58.85
2023-04-15T22:05:05.325Z,58.97
2023-04-15T22:07:09.709Z,59.19
2023-04-15T22:09:13.976Z,59.11
2023-04-15T22:11:23.157Z,59.13
2023-04-15T22:13:24.963Z,59.00
2023-04-15T22:15:26.945Z,59.10
2023-04-15T22:17:29.113Z,59.26
2023-04-15T22:19:31.280Z,59.18
2023-04-15T22:21:33.147Z,59.49
2023-04-15T22:23:34.990Z,59.81
2023-04-15T22:25:37.459Z,59.76
2023-04-15T22:27:39.333Z,60.09
2023-04-15T22:29:41.176Z,60.32
2023-04-15T22:31:45.972Z,60.86
2023-04-15T22:33:50.421Z,61.30
2023-04-15T22:35:52.267Z,61.14
2023-04-15T22:37:54.224Z,61.14
2023-04-15T22:39:56.629Z,61.27
2023-04-15T22:41:58.414Z,61.16
2023-04-15T22:44:03.156Z,61.18
2023-04-15T22:46:05.048Z,60.81
2023-04-15T22:48:06.927Z,60.82
2023-04-15T22:50:09.339Z,61.21
2023-04-15T22:52:17.163Z,60.78
2023-04-15T22:54:21.927Z,61.10
2023-04-15T22:56:23.798Z,61.10
2023-04-15T22:58:25.657Z,61.17
2023-04-15T23:00:27.544Z,60.79
2023-04-15T23:02:29.439Z,61.07
2023-04-15T23:04:33.922Z,60.76
2023-04-15T23:06:35.856Z,60.58
2023-04-15T23:08:38.120Z,60.41
2023-04-15T23:10:40.528Z,59.93
2023-04-15T23:12:42.342Z,59.49
2023-04-15T23:14:44.081Z,58.72
2023-04-15T23:16:45.906Z,57.64
2023-04-15T23:18:47.676Z,57.03
2023-04-15T23:20:49.522Z,56.43
2023-04-15T23:22:51.317Z,56.46
2023-04-15T23:24:53.054Z,56.50
2023-04-15T23:26:55.472Z,55.81
2023-04-15T23:28:57.573Z,55.71
2023-04-15T23:31:00.684Z,55.48
2023-04-15T23:33:02.658Z,54.90
2023-04-15T23:35:05.082Z,55.00
2023-04-15T23:37:08.996Z,55.00
2023-04-15T23:39:10.855Z,55.56
2023-04-15T23:41:12.841Z,55.68
2023-04-15T23:43:14.576Z,55.58
2023-04-15T23:45:16.417Z,55.70
2023-04-15T23:47:18.122Z,55.51
2023-04-15T23:49:20.583Z,56.16
2023-04-15T23:51:22.512Z,56.50
2023-04-15T23:53:24.381Z,57.04
2023-04-15T23:55:26.176Z,57.58
2023-04-15T23:57:27.966Z,57.60
2023-04-15T23:59:29.817Z,57.74
